Time;durP1;ratioP1;P1;durP2;ratioP2;P2;SDS_P1;SDS_P2;PMS_P1;PMS_P2;Temp;Humidity;BMP_temperature;BMP_pressure;BME280_temperature;BME280_humidity;BME280_pressure;Samples;Min_cycle;Max_cycle;Signal;HPM_P1;HPM_P2
2021/11/07 00:05:06;;;;;;;12.75;9.52;;;-1.00;99.90;;;;;;4769320;30;20063;-80
2021/11/07 00:10:50;;;;;;;15.27;10.57;;;-1.00;99.90;;;;;;4740414;30;20043;-80
2021/11/07 00:13:22;;;;;;;13.07;9.65;;;-1.00;99.90;;;;;;4769653;29;21627;-80
2021/11/07 00:15:50;;;;;;;13.23;8.27;;;-1.00;99.90;;;;;;4734803;30;20407;-80
2021/11/07 00:18:21;;;;;;;15.48;9.70;;;-1.20;99.90;;;;;;4734483;30;20057;-81
2021/11/07 00:20:53;;;;;;;12.68;8.00;;;-1.30;99.90;;;;;;4734707;30;20057;-87
2021/11/07 00:23:36;;;;;;;13.63;10.02;;;-1.40;99.90;;;;;;4747379;30;20060;-89
2021/11/07 00:28:58;;;;;;;17.77;9.30;;;-1.60;99.90;;;;;;4734254;30;20053;-88
2021/11/07 00:37:06;;;;;;;11.95;7.75;;;-1.80;99.90;;;;;;4769558;30;20055;-82
2021/11/07 00:42:50;;;;;;;16.00;9.77;;;-1.60;99.90;;;;;;4768202;29;20524;-82
2021/11/07 00:45:23;;;;;;;13.68;8.27;;;-1.60;99.90;;;;;;4767771;30;20059;-82
2021/11/07 00:50:28;;;;;;;12.93;9.20;;;-1.40;99.90;;;;;;4750935;30;20423;-82
2021/11/07 00:53:12;;;;;;;10.85;7.60;;;-1.40;99.90;;;;;;4735449;30;20062;-82
2021/11/07 00:55:48;;;;;;;7.72;5.72;;;-1.20;99.90;;;;;;4734989;30;20427;-82
2021/11/07 00:58:31;;;;;;;8.93;7.57;;;-1.20;99.90;;;;;;4750663;30;20059;-83
2021/11/07 01:01:06;;;;;;;16.73;8.90;;;-1.10;99.90;;;;;;4748871;30;20056;-82
2021/11/07 01:03:34;;;;;;;11.52;7.50;;;-1.10;99.90;;;;;;4751123;30;20483;-82
2021/11/07 01:06:02;;;;;;;8.65;6.43;;;-1.10;99.90;;;;;;4749815;30;20052;-82
2021/11/07 01:08:31;;;;;;;8.13;5.88;;;-1.10;99.90;;;;;;4735207;30;20060;-82
2021/11/07 01:11:00;;;;;;;10.50;7.28;;;-1.20;99.90;;;;;;4734424;30;20502;-82
2021/11/07 01:13:29;;;;;;;7.32;6.30;;;-1.20;99.90;;;;;;4750336;30;20052;-82
2021/11/07 01:15:57;;;;;;;8.45;6.07;;;-1.20;99.90;;;;;;4750882;30;20060;-82
2021/11/07 01:18:25;;;;;;;9.02;6.50;;;-1.20;99.90;;;;;;4750051;30;20056;-83
2021/11/07 01:20:53;;;;;;;12.70;7.97;;;-1.20;99.90;;;;;;4751092;30;20060;-82
2021/11/07 01:25:52;;;;;;;10.80;8.10;;;-1.10;99.90;;;;;;4741432;30;20802;-81
2021/11/07 01:28:21;;;;;;;10.82;9.20;;;-1.20;99.90;;;;;;4733111;30;20057;-82
2021/11/07 01:30:53;;;;;;;9.80;8.75;;;-1.20;99.90;;;;;;4758588;30;20056;-82
2021/11/07 01:33:24;;;;;;;;;;;-1.30;99.90;;;;;;4768262;29;20051;-82
2021/11/07 01:36:12;;;;;;;10.32;6.50;;;-1.30;99.90;;;;;;4768241;30;19929;-82
2021/11/07 01:38:52;;;;;;;27.52;10.43;;;-1.50;99.90;;;;;;4767831;30;20521;-81
2021/11/07 01:41:30;;;;;;;10.45;9.20;;;-1.60;99.90;;;;;;4767483;29;20060;-82
2021/11/07 01:43:59;;;;;;;18.90;9.27;;;-1.60;99.90;;;;;;4767079;30;20068;-81
2021/11/07 01:46:30;;;;;;;38.85;10.70;;;-1.50;99.90;;;;;;4767186;30;20051;-81
2021/11/07 01:49:15;;;;;;;;;;;-1.50;99.90;;;;;;4768061;30;20070;-81
2021/11/07 01:51:52;;;;;;;44.60;11.15;;;-1.40;99.90;;;;;;4768186;30;20257;-82
2021/11/07 01:54:32;;;;;;;118.45;16.38;;;-1.30;99.90;;;;;;4767734;30;20494;-82
2021/11/07 01:57:00;;;;;;;32.25;12.75;;;-1.20;99.90;;;;;;4767347;30;20056;-81
2021/11/07 01:59:28;;;;;;;25.33;12.07;;;-1.20;99.90;;;;;;4767935;30;20052;-81
2021/11/07 02:01:59;;;;;;;52.47;10.45;;;-1.10;99.90;;;;;;4767055;30;20066;-81
2021/11/07 02:04:26;;;;;;;64.47;11.30;;;-1.00;99.90;;;;;;4768295;30;20063;-81
2021/11/07 02:06:55;;;;;;;15.00;8.88;;;-0.90;99.90;;;;;;4767615;30;20056;-81
2021/11/07 02:09:23;;;;;;;37.20;10.25;;;-0.90;99.90;;;;;;4767631;30;20052;-81
2021/11/07 02:11:51;;;;;;;12.48;8.98;;;-0.90;99.90;;;;;;4767088;30;20410;-81
2021/11/07 02:14:19;;;;;;;45.40;11.73;;;-0.80;99.90;;;;;;4753163;29;20511;-81
2021/11/07 02:16:47;;;;;;;26.85;9.73;;;-0.80;99.90;;;;;;4731971;30;20781;-82
2021/11/07 02:19:16;;;;;;;50.83;11.50;;;-0.80;99.90;;;;;;4732250;30;20055;-82
2021/11/07 02:21:45;;;;;;;19.92;9.25;;;-0.90;99.90;;;;;;4731885;30;20048;-82
2021/11/07 02:24:16;;;;;;;44.53;10.48;;;-0.90;99.90;;;;;;4732388;30;20530;-82
2021/11/07 02:26:51;;;;;;;91.77;17.73;;;-0.90;99.90;;;;;;4732734;30;20052;-82
2021/11/07 02:29:21;;;;;;;120.38;24.88;;;-0.90;99.90;;;;;;4741604;30;20052;-82
2021/11/07 02:31:50;;;;;;;29.48;9.90;;;-0.90;99.90;;;;;;4773078;30;20059;-81
2021/11/07 02:34:18;;;;;;;23.38;11.07;;;-0.90;99.90;;;;;;4773229;29;20070;-81
2021/11/07 02:36:46;;;;;;;15.57;9.63;;;-0.90;99.90;;;;;;4773614;30;20069;-81
2021/11/07 02:39:16;;;;;;;21.70;10.52;;;-0.80;99.90;;;;;;4781250;30;20040;-82
2021/11/07 02:41:45;;;;;;;19.92;11.38;;;-0.80;99.90;;;;;;4772680;29;20043;-81
2021/11/07 02:44:32;;;;;;;11.95;8.60;;;-0.90;99.90;;;;;;4773731;30;20478;-85
2021/11/07 02:47:03;;;;;;;10.77;7.57;;;-0.90;99.90;;;;;;4772643;30;20421;-84
2021/11/07 02:49:31;;;;;;;14.43;9.45;;;-0.90;99.90;;;;;;4739621;30;20051;-84
2021/11/07 02:52:00;;;;;;;11.43;9.25;;;-0.90;99.90;;;;;;4738070;30;20057;-84
2021/11/07 02:54:29;;;;;;;12.75;8.80;;;-0.90;99.90;;;;;;4738019;30;20057;-84
2021/11/07 02:56:58;;;;;;;10.57;9.40;;;-1.00;99.90;;;;;;4737928;30;20059;-84
2021/11/07 02:59:29;;;;;;;12.57;9.50;;;-1.00;99.90;;;;;;4737357;30;20056;-85
2021/11/07 03:01:58;;;;;;;11.38;9.60;;;-1.00;99.90;;;;;;4736831;30;20059;-84
2021/11/07 03:04:26;;;;;;;14.50;9.68;;;-1.00;99.90;;;;;;4738030;30;20075;-81
2021/11/07 03:06:56;;;;;;;9.63;7.93;;;-1.00;99.90;;;;;;4737673;30;20048;-81
2021/11/07 03:09:28;;;;;;;13.07;7.65;;;-1.10;99.90;;;;;;4737636;30;20061;-84
2021/11/07 03:12:00;;;;;;;11.73;9.43;;;-1.10;99.90;;;;;;4737778;30;20071;-84
2021/11/07 03:14:34;;;;;;;9.82;6.10;;;-1.20;99.90;;;;;;4737609;30;20063;-84
2021/11/07 03:17:03;;;;;;;9.70;7.88;;;-1.40;99.90;;;;;;4736954;30;20760;-84
2021/11/07 03:19:32;;;;;;;11.55;8.00;;;-1.40;99.90;;;;;;4738023;30;20048;-84
2021/11/07 03:22:07;;;;;;;10.88;9.00;;;-1.40;99.90;;;;;;4737147;30;20057;-84
2021/11/07 03:24:37;;;;;;;10.15;7.82;;;-1.30;99.90;;;;;;4737905;30;20072;-84
2021/11/07 03:27:13;;;;;;;9.52;7.95;;;-1.30;99.90;;;;;;4737054;30;20495;-84
2021/11/07 03:29:45;;;;;;;8.68;6.38;;;-1.30;99.90;;;;;;4746963;30;20044;-84
2021/11/07 03:32:19;;;;;;;10.18;8.65;;;-1.30;99.90;;;;;;4772804;30;20056;-84
2021/11/07 03:34:50;;;;;;;8.73;6.82;;;-1.30;99.90;;;;;;4772828;29;20291;-84
2021/11/07 03:37:26;;;;;;;8.38;7.13;;;-1.30;99.90;;;;;;4772518;30;20498;-84
2021/11/07 03:39:58;;;;;;;10.15;7.53;;;-1.40;99.90;;;;;;4769496;30;20055;-84
2021/11/07 03:42:27;;;;;;;8.30;7.05;;;-1.40;99.90;;;;;;4769795;29;20063;-84
2021/11/07 03:44:55;;;;;;;10.65;6.80;;;-1.40;99.90;;;;;;4770475;30;20058;-84
2021/11/07 03:47:23;;;;;;;9.40;7.47;;;-1.40;99.90;;;;;;4768826;30;20052;-84
2021/11/07 03:49:52;;;;;;;9.00;7.95;;;-1.40;99.90;;;;;;4769322;30;20050;-84
2021/11/07 03:52:20;;;;;;;11.80;8.57;;;-1.30;99.90;;;;;;4770244;30;20052;-84
2021/11/07 03:54:48;;;;;;;8.88;7.60;;;-1.50;99.90;;;;;;4769746;29;20059;-84
2021/11/07 03:57:17;;;;;;;12.75;6.80;;;-1.60;99.90;;;;;;4769176;30;20063;-84
2021/11/07 03:59:45;;;;;;;9.23;7.88;;;-1.70;99.90;;;;;;4739315;30;20521;-84
2021/11/07 04:02:13;;;;;;;10.23;7.80;;;-1.90;99.90;;;;;;4767736;29;20059;-84
2021/11/07 04:04:41;;;;;;;11.63;7.95;;;-2.00;99.90;;;;;;4768930;30;20059;-84
2021/11/07 04:07:10;;;;;;;12.73;9.57;;;-2.00;99.90;;;;;;4768325;30;20477;-81
2021/11/07 04:09:37;;;;;;;10.45;6.95;;;-2.00;99.90;;;;;;4769678;30;20048;-81
2021/11/07 04:12:06;;;;;;;9.88;7.72;;;-2.00;99.90;;;;;;4769948;30;20056;-81
2021/11/07 04:14:34;;;;;;;7.25;6.20;;;-2.00;99.90;;;;;;4760485;29;20063;-81
2021/11/07 04:17:05;;;;;;;9.43;7.95;;;-2.00;99.90;;;;;;4750769;30;20083;-81
2021/11/07 04:19:35;;;;;;;10.93;6.35;;;-2.00;99.90;;;;;;4751458;30;20075;-81
2021/11/07 04:22:06;;;;;;;11.45;8.27;;;-1.90;99.90;;;;;;4751212;30;20133;-82
2021/11/07 04:24:35;;;;;;;8.65;7.68;;;-2.00;99.90;;;;;;4751824;30;20049;-81
2021/11/07 04:27:03;;;;;;;10.63;8.00;;;-2.10;99.90;;;;;;4751393;30;20056;-81
2021/11/07 04:29:30;;;;;;;8.25;6.13;;;-2.20;99.90;;;;;;4754650;30;20058;-81
2021/11/07 04:31:59;;;;;;;10.32;7.90;;;-2.20;99.90;;;;;;4768948;30;20055;-80
2021/11/07 04:34:27;;;;;;;9.90;6.38;;;-2.30;99.90;;;;;;4769086;29;20832;-80
2021/11/07 04:36:56;;;;;;;7.25;6.38;;;-2.20;99.90;;;;;;4769410;30;20052;-80
2021/11/07 04:39:25;;;;;;;9.25;7.00;;;-2.10;99.90;;;;;;4752797;30;20090;-80
2021/11/07 04:41:57;;;;;;;8.50;6.25;;;-2.30;99.90;;;;;;4768356;30;20051;-80
2021/11/07 04:44:26;;;;;;;6.57;5.10;;;-2.30;99.90;;;;;;4769256;30;20048;-80
2021/11/07 04:46:55;;;;;;;8.25;6.10;;;-2.20;99.90;;;;;;4767011;30;20055;-80
2021/11/07 04:49:23;;;;;;;7.28;6.03;;;-2.10;99.90;;;;;;4752886;30;20059;-80
2021/11/07 04:51:51;;;;;;;8.20;4.82;;;-2.00;99.90;;;;;;4751099;30;20063;-80
2021/11/07 04:54:19;;;;;;;6.43;5.78;;;-2.00;99.90;;;;;;4749484;30;20524;-80
2021/11/07 04:56:47;;;;;;;7.20;5.90;;;-2.20;99.90;;;;;;4751188;30;20063;-80
2021/11/07 04:59:15;;;;;;;5.68;5.18;;;-2.20;99.90;;;;;;4750652;30;20055;-80
2021/11/07 05:01:43;;;;;;;5.15;4.15;;;-2.10;99.90;;;;;;4749958;30;20055;-81
2021/11/07 05:04:11;;;;;;;4.47;4.10;;;-2.10;99.90;;;;;;4751281;30;20055;-80
2021/11/07 05:06:38;;;;;;;6.22;4.80;;;-2.10;99.90;;;;;;4750717;30;20126;-80
2021/11/07 05:09:06;;;;;;;5.63;4.80;;;-2.00;99.90;;;;;;4750570;30;20060;-80
2021/11/07 05:11:34;;;;;;;6.60;4.35;;;-2.00;99.90;;;;;;4750752;30;20071;-80
2021/11/07 05:14:01;;;;;;;6.07;4.60;;;-2.20;99.90;;;;;;4734790;30;20059;-80
2021/11/07 05:16:29;;;;;;;3.78;3.38;;;-2.20;99.90;;;;;;4750562;30;20403;-81
2021/11/07 05:18:57;;;;;;;4.40;3.90;;;-2.20;99.90;;;;;;4750644;30;20419;-80
2021/11/07 05:21:25;;;;;;;5.53;4.40;;;-2.10;99.90;;;;;;4749863;30;20044;-80
2021/11/07 05:23:55;;;;;;;4.93;4.47;;;-2.20;99.90;;;;;;4750956;30;20403;-80
2021/11/07 05:26:23;;;;;;;4.47;4.10;;;-2.20;99.90;;;;;;4737538;30;20068;-81
2021/11/07 05:28:50;;;;;;;6.22;4.07;;;-2.40;99.90;;;;;;4732946;30;20060;-81
2021/11/07 05:31:18;;;;;;;5.63;4.78;;;-2.40;99.90;;;;;;4765417;30;20075;-81
2021/11/07 05:33:46;;;;;;;4.28;3.90;;;-2.30;99.90;;;;;;4767399;29;20054;-80
2021/11/07 05:36:14;;;;;;;5.63;3.55;;;-2.20;99.90;;;;;;4768458;30;20076;-81
2021/11/07 05:38:42;;;;;;;3.83;3.47;;;-2.20;99.90;;;;;;4766558;30;20518;-81
2021/11/07 05:41:10;;;;;;;5.88;5.03;;;-2.00;99.90;;;;;;4767709;29;20059;-80
2021/11/07 05:43:38;;;;;;;6.30;5.78;;;-1.80;99.90;;;;;;4768365;30;20075;-81
2021/11/07 05:46:06;;;;;;;5.10;3.60;;;-1.80;99.90;;;;;;4767582;30;20055;-81
2021/11/07 05:48:38;;;;;;;6.53;5.05;;;-1.70;99.90;;;;;;4767582;30;20060;-80
2021/11/07 05:51:07;;;;;;;3.83;3.53;;;-1.60;99.90;;;;;;4767446;30;20056;-80
2021/11/07 05:53:35;;;;;;;13.70;7.53;;;-1.50;99.90;;;;;;4768036;29;20509;-80
2021/11/07 05:56:03;;;;;;;10.75;7.60;;;-1.50;99.90;;;;;;4768431;30;20553;-81
2021/11/07 05:58:31;;;;;;;11.30;7.97;;;-1.50;99.90;;;;;;4767654;30;20048;-80
2021/11/07 06:00:58;;;;;;;17.75;10.85;;;-1.40;99.90;;;;;;4767157;30;20221;-80
2021/11/07 06:03:26;;;;;;;18.90;7.75;;;-1.40;99.90;;;;;;4767456;30;20059;-80
2021/11/07 06:05:54;;;;;;;15.25;11.18;;;-1.40;99.90;;;;;;4767761;30;20410;-80
2021/11/07 06:08:22;;;;;;;13.77;8.90;;;-1.30;99.90;;;;;;4768319;30;20386;-81
2021/11/07 06:10:50;;;;;;;14.18;9.50;;;-1.30;99.90;;;;;;4767753;30;20589;-81
2021/11/07 06:13:18;;;;;;;30.13;8.95;;;-1.20;99.90;;;;;;4767565;30;20066;-81
2021/11/07 06:15:45;;;;;;;79.95;14.27;;;-1.10;99.90;;;;;;4749980;30;20064;-81
2021/11/07 06:18:13;;;;;;;29.73;11.98;;;-1.10;99.90;;;;;;4749320;30;20052;-80
2021/11/07 06:20:41;;;;;;;31.48;12.95;;;-1.10;99.90;;;;;;4750010;30;20414;-81
2021/11/07 06:23:10;;;;;;;67.97;13.38;;;-1.10;99.90;;;;;;4749810;30;20056;-81
2021/11/07 06:25:39;;;;;;;88.00;16.60;;;-1.10;99.90;;;;;;4749646;30;20052;-81
2021/11/07 06:28:08;;;;;;;48.47;14.90;;;-1.10;99.90;;;;;;4749515;30;20049;-81
2021/11/07 06:30:36;;;;;;;49.80;11.63;;;-1.10;99.90;;;;;;4744529;30;20654;-81
2021/11/07 06:33:03;;;;;;;58.72;15.63;;;-1.10;99.90;;;;;;4766739;29;20075;-81
2021/11/07 06:35:31;;;;;;;40.40;10.93;;;-1.10;99.90;;;;;;4767789;30;20052;-80
2021/11/07 06:37:59;;;;;;;20.08;8.90;;;-1.10;99.90;;;;;;4767355;30;20581;-81
2021/11/07 06:40:27;;;;;;;27.48;7.68;;;-1.10;99.90;;;;;;4766885;30;20052;-81
2021/11/07 06:42:54;;;;;;;15.48;8.43;;;-1.10;99.90;;;;;;4765546;29;20111;-79
2021/11/07 06:45:23;;;;;;;8.32;6.35;;;-1.00;99.90;;;;;;4767160;30;20051;-79
2021/11/07 06:47:50;;;;;;;11.82;7.35;;;-1.10;99.90;;;;;;4758430;30;20057;-79
2021/11/07 06:50:18;;;;;;;7.30;6.28;;;-1.10;99.90;;;;;;4715706;30;20075;-79
2021/11/07 06:52:46;;;;;;;9.98;5.78;;;-1.20;99.90;;;;;;4731209;30;20057;-79
2021/11/07 06:55:17;;;;;;;9.15;7.78;;;-1.20;99.90;;;;;;4730257;30;20055;-78
2021/11/07 06:57:45;;;;;;;8.98;7.20;;;-1.10;99.90;;;;;;4731703;30;20049;-79
2021/11/07 07:00:18;;;;;;;10.77;8.38;;;-1.10;99.90;;;;;;4731881;30;20514;-79
2021/11/07 07:02:46;;;;;;;9.25;7.38;;;-1.10;99.90;;;;;;4730216;30;20052;-79
2021/11/07 07:05:17;;;;;;;7.05;5.32;;;-1.10;99.90;;;;;;4745284;30;20064;-79
2021/11/07 07:07:52;;;;;;;10.93;8.40;;;-0.90;99.90;;;;;;4732145;30;20053;-80
2021/11/07 07:13:23;;;;;;;11.00;8.13;;;-0.90;99.90;;;;;;4732369;30;20067;-81
2021/11/07 07:16:41;;;;;;;8.43;7.50;;;-0.80;99.90;;;;;;4735272;30;20069;-81
2021/11/07 07:21:26;;;;;;;9.95;6.55;;;-0.60;99.90;;;;;;4734612;30;20055;-79
2021/11/07 07:34:20;;;;;;;7.20;5.90;;;0.00;99.90;;;;;;4769950;29;20056;-79
2021/11/07 07:36:48;;;;;;;8.60;7.05;;;0.10;99.90;;;;;;4770243;30;20059;-79
2021/11/07 07:39:16;;;;;;;8.68;6.45;;;0.10;99.90;;;;;;4769732;30;20051;-79
2021/11/07 07:41:44;;;;;;;6.45;5.78;;;0.20;99.90;;;;;;4769535;30;20044;-79
2021/11/07 07:44:11;;;;;;;7.20;6.50;;;0.20;99.90;;;;;;4770401;30;20076;-79
2021/11/07 07:46:43;;;;;;;7.63;6.25;;;0.20;99.90;;;;;;4769239;30;20067;-79
2021/11/07 07:49:12;;;;;;;;;;;0.20;99.90;;;;;;4768853;30;20052;-78
2021/11/07 07:51:41;;;;;;;10.23;6.45;;;0.20;99.90;;;;;;4769948;30;19930;-78
2021/11/07 07:54:09;;;;;;;7.82;5.63;;;0.20;99.90;;;;;;4769757;29;20055;-79
2021/11/07 07:56:37;;;;;;;8.43;6.43;;;0.20;99.90;;;;;;4770129;30;20048;-79
2021/11/07 07:59:05;;;;;;;7.78;6.50;;;0.20;99.90;;;;;;4769524;30;20051;-79
2021/11/07 08:01:34;;;;;;;5.40;4.53;;;0.20;99.90;;;;;;4768685;29;20048;-78
2021/11/07 08:04:02;;;;;;;5.72;4.85;;;0.30;99.90;;;;;;4769851;30;20059;-79
2021/11/07 08:06:30;;;;;;;7.30;6.07;;;0.30;99.90;;;;;;4768454;30;20048;-78
2021/11/07 08:08:58;;;;;;;6.97;6.38;;;0.30;99.90;;;;;;4769665;30;20797;-79
2021/11/07 08:11:27;;;;;;;7.45;4.95;;;0.30;99.90;;;;;;4769936;30;20054;-79
2021/11/07 08:13:54;;;;;;;5.78;5.00;;;0.40;99.90;;;;;;4774632;29;20052;-79
2021/11/07 08:16:24;;;;;;;8.52;5.82;;;0.40;99.90;;;;;;4734030;30;20056;-79
2021/11/07 08:18:53;;;;;;;8.95;6.38;;;0.50;99.90;;;;;;4733581;30;20507;-79
2021/11/07 08:21:21;;;;;;;6.53;5.88;;;0.50;99.90;;;;;;4733579;30;20053;-79
2021/11/07 08:23:53;;;;;;;7.70;4.88;;;0.60;99.90;;;;;;4734443;30;20067;-79
2021/11/07 08:26:22;;;;;;;8.48;5.97;;;0.70;99.90;;;;;;4733062;30;20057;-79
2021/11/07 08:28:51;;;;;;;9.25;6.85;;;0.80;99.90;;;;;;4732750;30;20057;-80
2021/11/07 08:31:26;;;;;;;11.25;5.57;;;0.90;99.90;;;;;;4766389;30;20044;-80
2021/11/07 08:33:54;;;;;;;10.20;7.93;;;0.90;99.90;;;;;;4768786;29;20050;-80
2021/11/07 08:36:27;;;;;;;7.82;7.03;;;1.00;99.90;;;;;;4768282;30;20044;-79
2021/11/07 08:39:10;;;;;;;8.18;5.80;;;1.00;99.90;;;;;;4769016;30;20048;-80
2021/11/07 08:41:46;;;;;;;9.15;6.95;;;1.10;99.90;;;;;;4768443;29;20047;-80
2021/11/07 09:01:23;;;;;;;7.90;5.40;;;2.20;99.90;;;;;;4732786;30;20056;-84
2021/11/07 09:04:03;;;;;;;8.85;6.50;;;2.40;99.90;;;;;;4717750;30;20071;-85
2021/11/07 09:09:10;;;;;;;7.63;5.65;;;2.60;99.90;;;;;;4733236;30;20055;-87
2021/11/07 09:11:48;;;;;;;7.15;5.82;;;2.70;99.90;;;;;;4733330;30;20060;-87
2021/11/07 09:14:18;;;;;;;4.93;4.43;;;3.00;99.90;;;;;;4733231;30;20063;-86
2021/11/07 09:16:48;;;;;;;6.15;5.13;;;3.50;99.90;;;;;;4732728;30;20068;-86
2021/11/07 09:19:23;;;;;;;4.97;4.43;;;3.90;99.90;;;;;;4733148;30;20053;-87
2021/11/07 09:21:59;;;;;;;4.05;3.72;;;4.20;99.90;;;;;;4732901;30;20056;-86
2021/11/07 09:24:33;;;;;;;6.63;5.72;;;4.60;99.90;;;;;;4733449;30;20056;-86
2021/11/07 09:27:08;;;;;;;5.18;4.45;;;4.60;99.90;;;;;;4749689;30;20071;-86
2021/11/07 09:29:56;;;;;;;7.30;4.72;;;4.80;99.90;;;;;;4767635;30;20051;-86
2021/11/07 09:40:10;;;;;;;4.20;3.75;;;5.30;99.90;;;;;;4767019;30;20063;-85
2021/11/07 09:42:52;;;;;;;6.95;3.05;;;5.50;99.90;;;;;;4766582;29;20383;-85
2021/11/07 09:45:28;;;;;;;5.30;4.90;;;5.60;99.90;;;;;;4781517;30;20040;-84
2021/11/07 09:48:06;;;;;;;3.03;2.67;;;5.50;99.90;;;;;;4768104;30;20056;-84
2021/11/07 09:50:34;;;;;;;3.30;3.00;;;5.60;99.90;;;;;;4766700;30;20051;-84
2021/11/07 09:53:02;;;;;;;2.20;2.05;;;5.60;99.90;;;;;;4767981;29;20067;-85
2021/11/07 09:55:31;;;;;;;3.60;3.05;;;5.80;99.90;;;;;;4781850;30;20059;-85
2021/11/07 09:58:01;;;;;;;2.63;2.53;;;5.80;99.90;;;;;;4767565;30;20139;-84
2021/11/07 10:00:42;;;;;;;2.90;2.58;;;5.90;99.90;;;;;;4767583;30;20082;-82
2021/11/07 10:03:13;;;;;;;1.90;1.80;;;6.20;99.90;;;;;;4767321;29;20539;-82
2021/11/07 10:05:45;;;;;;;3.20;2.00;;;6.30;99.90;;;;;;4767882;30;20060;-82
2021/11/07 10:08:14;;;;;;;3.80;2.45;;;6.30;99.90;;;;;;4767975;30;20417;-82
2021/11/07 10:10:47;;;;;;;3.55;2.17;;;6.40;99.90;;;;;;4767262;30;20446;-83
2021/11/07 10:13:22;;;;;;;2.30;2.10;;;6.50;99.90;;;;;;4767213;29;20059;-82
2021/11/07 10:16:04;;;;;;;3.22;2.00;;;6.50;99.90;;;;;;4732546;30;20060;-85
2021/11/07 10:18:50;;;;;;;2.97;2.40;;;6.60;99.90;;;;;;4731948;30;20067;-86
2021/11/07 10:21:27;;;;;;;2.15;1.80;;;6.80;99.90;;;;;;4731934;30;20063;-87
2021/11/07 10:24:07;;;;;;;2.08;1.85;;;7.00;99.90;;;;;;4732573;30;20056;-86
2021/11/07 10:26:39;;;;;;;2.47;2.00;;;7.10;99.90;;;;;;4731954;30;20052;-85
2021/11/07 10:29:11;;;;;;;2.42;2.13;;;7.10;99.90;;;;;;4732872;30;20064;-86
2021/11/07 10:31:59;;;;;;;1.95;1.85;;;7.10;99.90;;;;;;4731236;30;20056;-84
2021/11/07 10:54:12;;;;;;;1.83;1.73;;;7.20;99.90;;;;;;4741088;30;20056;-81
2021/11/07 10:56:40;;;;;;;1.50;1.40;;;7.20;99.90;;;;;;4766356;30;20052;-82
2021/11/07 10:59:16;;;;;;;2.40;1.80;;;7.10;99.90;;;;;;4755318;30;20056;-81
2021/11/07 11:01:45;;;;;;;5.40;3.55;;;7.20;99.90;;;;;;4731082;30;20052;-82
2021/11/07 11:04:12;;;;;;;1.90;1.08;;;7.30;99.90;;;;;;4770410;30;20067;-82
2021/11/07 11:06:53;;;;;;;1.85;1.15;;;7.40;99.90;;;;;;4770222;30;20048;-82
2021/11/07 11:09:21;;;;;;;8.48;1.58;;;7.30;99.90;;;;;;4754097;30;20058;-82
2021/11/07 11:11:54;;;;;;;6.75;1.67;;;7.30;99.90;;;;;;4754125;30;20060;-82
2021/11/07 11:14:29;;;;;;;1.58;1.00;;;7.40;99.90;;;;;;4754286;29;20497;-83
2021/11/07 11:17:28;;;;;;;1.33;1.00;;;7.40;99.90;;;;;;4783537;30;20048;-82
2021/11/07 11:20:24;;;;;;;1.83;1.23;;;7.40;99.90;;;;;;4729669;30;20060;-82
2021/11/07 11:25:45;;;;;;;2.05;1.20;;;7.40;99.90;;;;;;4738222;30;20044;-82
2021/11/07 11:28:18;;;;;;;3.22;1.25;;;7.70;99.90;;;;;;4745677;30;20076;-82
2021/11/07 11:33:30;;;;;;;0.90;0.90;;;8.00;99.90;;;;;;4769379;29;20746;-80
2021/11/07 11:36:23;;;;;;;2.13;1.15;;;8.30;99.90;;;;;;4770401;30;20048;-80
2021/11/07 11:39:08;;;;;;;1.15;1.05;;;8.30;99.90;;;;;;4734736;30;20049;-80
2021/11/07 11:41:45;;;;;;;1.27;1.27;;;8.30;99.90;;;;;;4734144;30;20064;-80
2021/11/07 11:44:16;;;;;;;4.82;1.40;;;8.60;99.90;;;;;;4747257;30;20067;-79
2021/11/07 12:00:49;;;;;;;1.48;1.00;;;8.90;99.90;;;;;;4750872;30;20048;-80
2021/11/07 12:05:45;;;;;;;1.30;0.90;;;8.70;99.90;;;;;;4751769;30;20063;-80
2021/11/07 12:11:09;;;;;;;0.70;0.70;;;8.80;99.90;;;;;;4741506;30;20063;-80
2021/11/07 12:16:16;;;;;;;3.33;1.17;;;9.00;99.90;;;;;;4750594;30;20494;-80
2021/11/07 12:19:06;;;;;;;1.75;1.10;;;9.00;99.90;;;;;;4751288;30;20052;-81
2021/11/07 12:22:04;;;;;;;0.85;0.85;;;9.00;97.80;;;;;;4749940;30;20069;-81
2021/11/07 12:24:37;;;;;;;0.90;0.90;;;8.90;97.00;;;;;;4735940;30;20059;-78
2021/11/07 12:27:24;;;;;;;0.80;0.80;;;8.80;98.20;;;;;;4750960;30;20067;-79
2021/11/07 12:29:59;;;;;;;0.85;0.85;;;8.70;99.90;;;;;;4750552;30;20048;-80
2021/11/07 12:32:37;;;;;;;0.93;0.93;;;8.80;98.70;;;;;;4745839;30;20060;-80
2021/11/07 12:35:41;;;;;;;1.10;0.70;;;9.00;98.80;;;;;;4732858;30;20052;-77
2021/11/07 12:41:13;;;;;;;0.73;0.73;;;9.50;98.80;;;;;;4739648;30;20044;-78
2021/11/07 12:43:42;;;;;;;0.77;0.77;;;9.70;99.90;;;;;;4751471;30;20060;-78
2021/11/07 12:46:19;;;;;;;0.95;0.95;;;10.00;99.20;;;;;;4750819;30;20084;-77
2021/11/07 12:48:49;;;;;;;0.75;0.60;;;9.90;96.70;;;;;;4739839;30;20090;-78
2021/11/07 12:51:20;;;;;;;0.60;0.60;;;9.70;98.00;;;;;;4733135;30;20495;-78
2021/11/07 12:54:03;;;;;;;0.90;0.90;;;10.00;98.30;;;;;;4733202;30;20499;-78
2021/11/07 12:56:57;;;;;;;2.58;0.80;;;9.90;97.50;;;;;;4733481;30;20053;-79
2021/11/07 12:59:42;;;;;;;0.80;0.80;;;10.00;96.30;;;;;;4731493;30;20527;-80
2021/11/07 13:02:30;;;;;;;0.65;0.63;;;10.00;95.20;;;;;;4732241;30;20487;-79
2021/11/07 13:05:07;;;;;;;1.15;1.00;;;10.00;96.40;;;;;;4733639;30;20060;-79
2021/11/07 13:07:46;;;;;;;0.50;0.50;;;9.90;96.00;;;;;;4734840;30;20048;-79
2021/11/07 13:10:23;;;;;;;2.15;0.70;;;9.80;94.40;;;;;;4736636;30;20048;-80
2021/11/07 13:12:57;;;;;;;0.60;0.60;;;9.80;97.20;;;;;;4735190;30;20407;-80
2021/11/07 13:34:29;;;;;;;0.98;0.75;;;10.10;95.70;;;;;;4750104;30;20056;-78
2021/11/07 13:36:59;;;;;;;0.85;0.80;;;10.50;98.10;;;;;;4750645;30;20523;-78
2021/11/07 13:39:36;;;;;;;1.05;0.77;;;10.60;96.10;;;;;;4749667;30;20086;-78
2021/11/07 13:42:15;;;;;;;0.75;0.75;;;10.60;95.10;;;;;;4748587;30;20052;-80
2021/11/07 13:45:01;;;;;;;1.02;0.75;;;10.30;95.70;;;;;;4732860;30;20400;-79
2021/11/07 13:47:36;;;;;;;2.05;1.02;;;10.20;92.90;;;;;;4718796;30;20056;-76
2021/11/07 13:50:10;;;;;;;1.40;0.68;;;10.20;93.30;;;;;;4735660;30;20059;-90
2021/11/07 13:52:42;;;;;;;0.80;0.70;;;10.10;93.40;;;;;;4749733;30;20059;-88
2021/11/07 13:55:25;;;;;;;1.08;1.02;;;10.10;95.20;;;;;;4750390;30;20423;-77
2021/11/07 13:57:54;;;;;;;0.60;0.60;;;10.10;93.60;;;;;;4750037;30;20055;-77
2021/11/07 14:00:26;;;;;;;0.70;0.68;;;10.10;94.50;;;;;;4750106;30;20060;-78
2021/11/07 14:02:56;;;;;;;5.75;3.30;;;10.10;94.90;;;;;;4748803;30;20052;-78
2021/11/07 14:05:24;;;;;;;0.95;0.93;;;10.10;94.90;;;;;;4749860;30;20083;-83
2021/11/07 14:08:05;;;;;;;2.00;1.17;;;10.20;94.40;;;;;;4734360;30;20056;-80
2021/11/07 14:11:36;;;;;;;0.90;0.70;;;10.30;93.40;;;;;;4743625;30;20052;-89
2021/11/07 14:15:09;;;;;;;1.27;0.82;;;10.20;93.20;;;;;;4715029;30;20048;-89
2021/11/07 14:20:15;;;;;;;1.30;0.80;;;10.00;94.20;;;;;;4660381;30;20058;-92
2021/11/07 14:27:58;;;;;;;0.88;0.82;;;9.80;94.00;;;;;;4572652;31;20486;-82
2021/11/07 14:30:36;;;;;;;1.25;1.15;;;9.70;93.60;;;;;;4681763;30;20055;-83
2021/11/07 14:33:11;;;;;;;0.75;0.65;;;9.60;94.10;;;;;;4755142;29;20052;-83
2021/11/07 14:35:41;;;;;;;2.33;0.73;;;9.50;94.70;;;;;;4741177;30;20063;-83
2021/11/07 14:38:18;;;;;;;1.00;0.77;;;9.50;96.70;;;;;;4760486;30;20052;-82
2021/11/07 14:43:19;;;;;;;0.80;0.80;;;9.50;97.20;;;;;;4767071;29;20055;-83
2021/11/07 14:45:57;;;;;;;0.70;0.70;;;9.50;96.70;;;;;;4761275;30;20056;-74
2021/11/07 15:01:09;;;;;;;1.08;0.70;;;9.70;97.50;;;;;;4748181;30;20067;-86
2021/11/07 15:04:22;;;;;;;0.85;0.80;;;9.60;97.90;;;;;;4732727;30;20403;-83
2021/11/07 15:07:09;;;;;;;0.90;0.90;;;9.50;97.30;;;;;;4740011;30;20055;-83
2021/11/07 15:23:58;;;;;;;0.80;0.80;;;9.10;99.70;;;;;;4751216;30;20414;-81
2021/11/07 15:26:33;;;;;;;0.65;0.65;;;9.00;98.60;;;;;;4730276;30;20519;-82
2021/11/07 15:29:06;;;;;;;1.42;0.93;;;9.00;98.50;;;;;;4730365;30;20099;-81
2021/11/07 15:31:35;;;;;;;1.02;0.80;;;9.00;98.60;;;;;;4736041;30;20040;-82
2021/11/07 15:34:06;;;;;;;1.35;1.25;;;8.90;99.10;;;;;;4748954;30;20056;-81
2021/11/07 15:36:46;;;;;;;2.42;2.25;;;8.80;99.60;;;;;;4736958;30;20172;-81
2021/11/07 15:39:24;;;;;;;2.35;1.50;;;8.80;99.90;;;;;;4755566;30;20052;-82
2021/11/07 15:42:17;;;;;;;1.92;1.75;;;8.60;99.90;;;;;;4725088;30;20048;-81
2021/11/07 15:44:57;;;;;;;2.72;2.17;;;8.60;99.90;;;;;;4728535;30;20066;-77
2021/11/07 15:47:32;;;;;;;1.88;1.55;;;8.50;99.90;;;;;;4732252;30;20090;-81
2021/11/07 15:52:54;;;;;;;3.35;1.67;;;8.20;99.90;;;;;;4734768;30;20064;-80
2021/11/07 16:07:35;;;;;;;1.60;1.50;;;8.00;99.90;;;;;;4704456;30;20068;-84
2021/11/07 16:10:30;;;;;;;;;;;;;;;;;;;;;
2021/11/07 16:17:21;;;;;;;2.25;2.00;;;7.70;99.90;;;;;;4721541;30;20427;-83
2021/11/07 16:20:14;;;;;;;2.72;2.08;;;7.70;99.90;;;;;;4681462;30;20407;-83
2021/11/07 16:23:23;;;;;;;2.47;2.28;;;7.40;99.90;;;;;;4739520;30;20074;-83
2021/11/07 16:26:16;;;;;;;8.13;3.38;;;7.30;99.90;;;;;;4726402;30;20052;-83
2021/11/07 16:29:03;;;;;;;6.60;3.22;;;7.20;99.90;;;;;;4722085;30;20410;-83
2021/11/07 16:31:43;;;;;;;6.00;2.38;;;7.20;99.90;;;;;;4766527;30;20056;-83